Mount Sharp, Texas
Current Conditions -  °F | °C
As of 6:55 PM on Friday 24 Oct 2014 (Local Time) from KRYW Reporting Station
Clear Clear  
Wind Chill: 78°   Ceiling: Unl
Heat Index: 79°   Visibility: 10mi
Dew Point: 59°   Wind: 0mph
Humidity: 53%   Direction: NA
Pressure: 30.11"   Gusts: NA
Location:  30.2468°N, 98.1159°W
Report Text: KRYW 242355Z AUTO 00000KT 10SM CLR 25/15 A3011 RMK AO2 T02540152 10290 20254
Loading
Personal Weather Stations






























Interactive Weather Map
Tropical Storm Tracking
New forecast layout! Learn more

10-Day Weather Forecast

Advertisements
Track Severe Weather on mobile